createdAt,value
2023-01-11T00:00:39.090Z,5.80
2023-01-11T00:03:07.177Z,5.70
2023-01-11T00:05:39.421Z,5.70
2023-01-11T00:08:07.426Z,5.80
2023-01-11T00:10:34.472Z,5.70
2023-01-11T00:13:01.985Z,5.70
2023-01-11T00:15:29.134Z,5.70
2023-01-11T00:17:57.683Z,5.80
2023-01-11T00:20:25.110Z,5.70
2023-01-11T00:22:52.063Z,5.70
2023-01-11T00:25:19.114Z,5.60
2023-01-11T00:27:47.462Z,5.60
2023-01-11T00:30:14.553Z,5.60
2023-01-11T00:32:41.813Z,5.50
2023-01-11T00:35:09.541Z,5.50
2023-01-11T00:37:36.555Z,5.50
2023-01-11T00:40:04.041Z,5.50
2023-01-11T00:42:49.526Z,5.40
2023-01-11T00:45:35.192Z,5.40
2023-01-11T00:48:05.055Z,5.40
2023-01-11T00:50:35.363Z,5.40
2023-01-11T00:53:02.612Z,5.30
2023-01-11T00:55:31.991Z,5.30
2023-01-11T00:57:59.297Z,5.30
2023-01-11T01:00:27.627Z,5.30
2023-01-11T01:02:55.000Z,5.30
2023-01-11T01:05:22.046Z,5.20
2023-01-11T01:07:49.511Z,5.20
2023-01-11T01:10:18.124Z,5.20
2023-01-11T01:13:04.065Z,5.20
2023-01-11T01:15:31.374Z,5.20
2023-01-11T01:17:58.423Z,5.20
2023-01-11T01:20:25.813Z,5.30
2023-01-11T01:22:52.939Z,5.20
2023-01-11T01:25:20.019Z,5.20
2023-01-11T01:27:47.173Z,5.20
2023-01-11T01:30:14.851Z,5.20
2023-01-11T01:32:41.844Z,5.20
2023-01-11T01:35:09.332Z,5.10
2023-01-11T01:37:36.554Z,5.10
2023-01-11T01:40:04.540Z,5.10
2023-01-11T01:42:31.780Z,5.10
2023-01-11T01:45:07.257Z,5.00
2023-01-11T01:47:44.415Z,5.00
2023-01-11T01:50:32.371Z,5.00
2023-01-11T01:53:09.154Z,5.00
2023-01-11T01:55:40.974Z,4.90
2023-01-11T01:58:13.078Z,4.90
2023-01-11T02:00:45.570Z,4.90
2023-01-11T02:03:19.194Z,4.90
2023-01-11T02:05:46.835Z,4.90
2023-01-11T02:08:37.892Z,4.80
2023-01-11T02:11:25.698Z,4.70
2023-01-11T02:13:53.479Z,4.70
2023-01-11T02:16:20.523Z,4.70
2023-01-11T02:18:47.581Z,4.70
2023-01-11T02:21:25.770Z,4.60
2023-01-11T02:24:24.927Z,4.60
2023-01-11T02:27:20.740Z,4.50
2023-01-11T02:30:16.903Z,4.50
2023-01-11T02:33:20.994Z,4.50
2023-01-11T02:36:12.986Z,4.50
2023-01-11T02:38:49.751Z,4.40
2023-01-11T02:41:19.720Z,4.50
2023-01-11T02:44:31.355Z,4.60
2023-01-11T02:47:07.134Z,4.60
2023-01-11T02:49:36.099Z,4.60
2023-01-11T02:52:09.467Z,4.60
2023-01-11T02:54:38.018Z,4.60
2023-01-11T02:57:06.147Z,4.60
2023-01-11T02:59:36.414Z,4.50
2023-01-11T03:02:03.664Z,4.50
2023-01-11T03:04:36.344Z,4.50
2023-01-11T03:07:27.774Z,4.40
2023-01-11T03:10:09.742Z,4.40
2023-01-11T03:12:57.699Z,4.40
2023-01-11T03:15:27.412Z,4.40
2023-01-11T03:18:11.089Z,4.50
2023-01-11T03:20:45.747Z,4.50
2023-01-11T03:23:47.129Z,4.50
2023-01-11T03:26:36.376Z,4.40
2023-01-11T03:29:18.544Z,4.50
2023-01-11T03:31:51.213Z,4.40
2023-01-11T03:34:44.676Z,4.40
2023-01-11T03:37:33.563Z,4.50
2023-01-11T03:40:24.133Z,4.40
2023-01-11T03:43:11.921Z,4.40
2023-01-11T03:45:47.099Z,4.40
2023-01-11T03:48:52.260Z,4.40
2023-01-11T03:51:25.061Z,4.50
2023-01-11T03:53:52.904Z,4.50
2023-01-11T03:56:24.785Z,4.50
2023-01-11T03:58:51.743Z,4.50
2023-01-11T04:01:18.976Z,4.50
2023-01-11T04:03:45.915Z,4.60
2023-01-11T04:06:13.156Z,4.50
2023-01-11T04:08:40.181Z,4.40
2023-01-11T04:11:07.354Z,4.40
2023-01-11T04:13:34.527Z,4.40
2023-01-11T04:16:01.606Z,4.40
2023-01-11T04:18:28.758Z,4.40
2023-01-11T04:20:55.898Z,4.30
2023-01-11T04:23:22.878Z,4.10
2023-01-11T04:25:49.855Z,4.10
2023-01-11T04:28:16.818Z,4.10
2023-01-11T04:30:43.823Z,4.00
2023-01-11T04:33:13.287Z,3.90
2023-01-11T04:35:40.340Z,3.70
2023-01-11T04:38:07.339Z,3.70
2023-01-11T04:40:34.270Z,3.60
2023-01-11T04:43:02.481Z,3.50
2023-01-11T04:45:30.457Z,3.40
2023-01-11T04:47:58.563Z,3.70
2023-01-11T04:50:26.686Z,3.70
2023-01-11T04:52:54.116Z,3.80
2023-01-11T04:55:21.170Z,3.90
2023-01-11T04:57:48.124Z,3.90
2023-01-11T05:00:16.144Z,3.80
2023-01-11T05:02:43.186Z,3.80
2023-01-11T05:05:11.130Z,3.80
2023-01-11T05:07:38.989Z,3.90
2023-01-11T05:10:06.660Z,3.90
2023-01-11T05:12:33.639Z,3.90
2023-01-11T05:15:00.603Z,4.00
2023-01-11T05:17:27.607Z,4.00
2023-01-11T05:19:54.590Z,4.00
2023-01-11T05:22:21.571Z,4.10
2023-01-11T05:24:48.541Z,4.10
2023-01-11T05:27:15.552Z,4.10
2023-01-11T05:29:44.262Z,4.10
2023-01-11T05:32:12.345Z,4.10
2023-01-11T05:34:39.455Z,4.20
2023-01-11T05:37:06.556Z,4.20
2023-01-11T05:39:33.495Z,4.30
2023-01-11T05:42:00.463Z,4.30
2023-01-11T05:44:45.832Z,4.30
2023-01-11T05:47:12.777Z,4.30
2023-01-11T05:49:40.265Z,4.20
2023-01-11T05:52:07.170Z,4.30
2023-01-11T05:54:34.102Z,4.30
2023-01-11T05:57:01.119Z,4.20
2023-01-11T05:59:29.346Z,4.20
2023-01-11T06:01:58.088Z,4.20
2023-01-11T06:04:25.193Z,4.10
2023-01-11T06:06:52.120Z,4.10
2023-01-11T06:09:19.038Z,4.10
2023-01-11T06:11:45.983Z,4.10
2023-01-11T06:14:12.936Z,4.00
2023-01-11T06:16:39.980Z,4.00
2023-01-11T06:19:07.077Z,4.00
2023-01-11T06:21:35.588Z,4.10
2023-01-11T06:24:02.583Z,4.10
2023-01-11T06:26:29.578Z,4.10
2023-01-11T06:28:56.583Z,4.10
2023-01-11T06:31:23.628Z,4.00
2023-01-11T06:33:50.641Z,4.00
2023-01-11T06:36:17.758Z,3.90
2023-01-11T06:38:45.257Z,3.90
2023-01-11T06:41:12.985Z,3.90
2023-01-11T06:43:41.983Z,3.80
2023-01-11T06:46:14.195Z,3.80
2023-01-11T06:48:41.222Z,3.80
2023-01-11T06:51:10.994Z,3.80
2023-01-11T06:53:38.621Z,3.90
2023-01-11T06:56:06.014Z,4.00
2023-01-11T06:58:32.964Z,4.10
2023-01-11T07:01:00.143Z,4.00
2023-01-11T07:03:27.544Z,4.00
2023-01-11T07:05:59.603Z,3.90
2023-01-11T07:08:26.695Z,4.10
2023-01-11T07:10:54.260Z,4.00
2023-01-11T07:13:21.803Z,4.10
2023-01-11T07:15:50.842Z,4.10
2023-01-11T07:18:19.732Z,4.20
2023-01-11T07:20:47.019Z,4.20
2023-01-11T07:23:14.124Z,4.20
2023-01-11T07:25:41.459Z,4.20
2023-01-11T07:28:09.527Z,4.20
2023-01-11T07:30:55.612Z,4.20
2023-01-11T07:33:24.690Z,4.20
2023-01-11T07:35:54.571Z,4.20
2023-01-11T07:38:21.690Z,4.30
2023-01-11T07:40:48.831Z,4.30
2023-01-11T07:43:15.865Z,4.30
2023-01-11T07:45:49.460Z,4.30
2023-01-11T07:48:25.112Z,4.20
2023-01-11T07:50:54.511Z,4.10
2023-01-11T07:53:22.362Z,4.10
2023-01-11T07:55:49.464Z,4.10
2023-01-11T07:58:16.632Z,4.10
2023-01-11T08:00:44.268Z,4.10
2023-01-11T08:03:11.466Z,4.20
2023-01-11T08:05:38.642Z,4.20
2023-01-11T08:08:06.687Z,4.20
2023-01-11T08:10:34.689Z,4.10
2023-01-11T08:13:20.356Z,4.10
2023-01-11T08:15:47.558Z,4.10
2023-01-11T08:18:14.752Z,4.20
2023-01-11T08:20:41.952Z,4.00
2023-01-11T08:23:10.372Z,4.10
2023-01-11T08:25:38.467Z,4.10
2023-01-11T08:28:09.055Z,4.10
2023-01-11T08:30:36.888Z,4.10
2023-01-11T08:33:05.523Z,4.00
2023-01-11T08:35:38.395Z,4.00
2023-01-11T08:38:05.557Z,3.80
2023-01-11T08:40:32.617Z,3.80
2023-01-11T08:43:02.059Z,3.80
2023-01-11T08:45:29.532Z,3.80
2023-01-11T08:47:56.702Z,3.90
2023-01-11T08:50:23.884Z,3.90
2023-01-11T08:52:51.778Z,3.90
2023-01-11T08:55:22.028Z,4.00
2023-01-11T08:57:49.261Z,4.10
2023-01-11T09:00:18.465Z,4.40
2023-01-11T09:02:46.115Z,4.50
2023-01-11T09:05:13.644Z,4.60
2023-01-11T09:07:40.818Z,4.70
2023-01-11T09:10:08.420Z,4.80
2023-01-11T09:12:36.028Z,5.00
2023-01-11T09:15:06.021Z,5.00
2023-01-11T09:17:33.536Z,5.00
2023-01-11T09:20:02.575Z,5.10
2023-01-11T09:22:32.157Z,5.20
2023-01-11T09:25:00.385Z,5.20
2023-01-11T09:27:27.581Z,5.30
2023-01-11T09:29:54.725Z,5.30
2023-01-11T09:32:22.179Z,5.30
2023-01-11T09:34:49.915Z,5.40
2023-01-11T09:37:17.021Z,5.50
2023-01-11T09:39:44.790Z,5.70
2023-01-11T09:42:31.563Z,5.80
2023-01-11T09:45:34.608Z,6.00
2023-01-11T09:48:11.917Z,6.10
2023-01-11T09:50:47.851Z,6.20
2023-01-11T09:53:28.217Z,6.20
2023-01-11T09:55:59.690Z,6.50
2023-01-11T09:58:29.636Z,6.70
2023-01-11T10:01:17.879Z,6.80
2023-01-11T10:03:54.776Z,6.90
2023-01-11T10:06:30.626Z,7.00
2023-01-11T10:18:23.320Z,7.50
2023-01-11T10:18:42.927Z,7.80
2023-01-11T10:21:22.908Z,7.90
2023-01-11T10:24:03.225Z,8.00
2023-01-11T10:26:40.239Z,7.70
2023-01-11T10:29:49.950Z,7.70
2023-01-11T10:32:58.168Z,7.90
2023-01-11T10:35:45.097Z,7.30
2023-01-11T10:38:56.237Z,6.80
2023-01-11T10:41:52.535Z,6.60
2023-01-11T10:44:31.558Z,6.60
2023-01-11T10:47:00.062Z,6.80
2023-01-11T10:49:48.690Z,7.40
2023-01-11T10:52:29.371Z,7.90
2023-01-11T10:54:58.988Z,8.30
2023-01-11T10:58:00.183Z,8.50
2023-01-11T11:00:40.819Z,8.60
2023-01-11T11:03:48.506Z,8.90
2023-01-11T11:06:35.076Z,8.80
2023-01-11T11:09:38.732Z,8.20
2023-01-11T11:12:19.656Z,8.00
2023-01-11T11:14:49.409Z,8.60
2023-01-11T11:17:25.019Z,9.00
2023-01-11T11:19:53.515Z,9.20
2023-01-11T11:22:21.121Z,9.50
2023-01-11T11:25:00.409Z,9.90
2023-01-11T11:27:38.612Z,10.00
2023-01-11T11:30:10.044Z,10.10
2023-01-11T11:32:41.516Z,10.20
2023-01-11T11:35:31.240Z,10.30
2023-01-11T11:37:58.244Z,10.20
2023-01-11T11:40:43.249Z,10.40
2023-01-11T11:43:22.252Z,10.50
2023-01-11T11:45:54.773Z,10.80
2023-01-11T11:48:23.062Z,10.80
2023-01-11T11:50:51.755Z,10.90
2023-01-11T11:53:43.237Z,11.20
2023-01-11T11:56:23.308Z,11.30
2023-01-11T11:58:51.370Z,11.40
2023-01-11T12:01:28.443Z,11.20
2023-01-11T12:03:59.573Z,11.20
2023-01-11T12:06:30.513Z,11.20
2023-01-11T12:09:02.259Z,11.30
2023-01-11T12:11:35.501Z,11.30
2023-01-11T12:14:10.697Z,11.40
2023-01-11T12:16:43.505Z,11.20
2023-01-11T12:19:27.224Z,11.50
2023-01-11T12:22:09.528Z,11.50
2023-01-11T12:24:36.599Z,11.60
2023-01-11T12:27:15.996Z,11.70
2023-01-11T12:30:05.416Z,11.70
2023-01-11T12:33:01.849Z,11.60
2023-01-11T12:35:45.693Z,11.70
2023-01-11T12:38:15.416Z,11.80
2023-01-11T12:41:16.910Z,11.80
2023-01-11T12:43:52.499Z,11.80
2023-01-11T12:46:53.788Z,11.80
2023-01-11T12:49:29.736Z,11.90
2023-01-11T12:52:11.351Z,11.80
2023-01-11T12:55:01.955Z,11.90
2023-01-11T12:57:36.910Z,12.00
2023-01-11T13:00:09.732Z,11.90
2023-01-11T13:02:58.333Z,11.80
2023-01-11T13:05:36.209Z,11.70
2023-01-11T13:08:18.860Z,11.70
2023-01-11T13:11:11.890Z,11.70
2023-01-11T13:13:38.812Z,11.90
2023-01-11T13:16:26.027Z,11.90
2023-01-11T13:19:01.318Z,11.90
2023-01-11T13:21:36.812Z,12.10
2023-01-11T13:24:20.142Z,12.10
2023-01-11T13:26:50.669Z,12.10
2023-01-11T13:29:30.745Z,12.00
2023-01-11T13:32:05.617Z,12.00
2023-01-11T13:34:57.431Z,12.10
2023-01-11T13:37:58.028Z,12.00
2023-01-11T13:40:29.645Z,11.70
2023-01-11T13:43:11.461Z,11.70
2023-01-11T13:45:44.169Z,11.60
2023-01-11T13:48:20.092Z,11.60
2023-01-11T13:51:14.508Z,11.50
2023-01-11T13:53:51.827Z,11.40
2023-01-11T13:56:42.745Z,11.60
2023-01-11T13:59:31.781Z,11.50
2023-01-11T14:02:05.230Z,11.50
2023-01-11T14:04:50.981Z,11.30
2023-01-11T14:07:17.896Z,11.30
2023-01-11T14:10:16.938Z,11.40
2023-01-11T14:13:00.797Z,11.10
2023-01-11T14:15:40.174Z,11.20
2023-01-11T14:18:31.539Z,11.20
2023-01-11T14:21:23.217Z,11.30
2023-01-11T14:23:55.143Z,11.40
2023-01-11T14:26:35.157Z,11.10
2023-01-11T14:29:29.983Z,11.00
2023-01-11T14:32:43.992Z,11.10
2023-01-11T14:35:32.822Z,11.00
2023-01-11T14:38:11.069Z,11.10
2023-01-11T14:41:02.993Z,10.90
2023-01-11T14:43:39.142Z,10.70
2023-01-11T14:46:19.878Z,10.50
2023-01-11T14:49:14.522Z,10.40
2023-01-11T14:52:00.683Z,10.50
2023-01-11T14:54:31.789Z,10.40
2023-01-11T14:56:59.936Z,10.30
2023-01-11T14:59:37.194Z,10.20
2023-01-11T15:02:04.403Z,10.00
2023-01-11T15:04:51.225Z,9.80
2023-01-11T15:07:23.399Z,9.70
2023-01-11T15:09:53.767Z,9.50
2023-01-11T15:12:23.997Z,9.20
2023-01-11T15:15:06.234Z,9.00
2023-01-11T15:17:52.099Z,9.00
2023-01-11T15:20:21.596Z,8.70
2023-01-11T15:23:05.874Z,8.60
2023-01-11T15:25:34.878Z,8.30
2023-01-11T15:28:25.600Z,8.10
2023-01-11T15:30:53.332Z,8.00
2023-01-11T15:33:20.473Z,7.70
2023-01-11T15:35:56.355Z,7.60
2023-01-11T15:38:52.217Z,7.50
2023-01-11T15:41:52.298Z,7.30
2023-01-11T15:44:49.728Z,7.10
2023-01-11T15:47:45.401Z,7.00
2023-01-11T15:50:49.614Z,6.90
2023-01-11T15:53:49.026Z,6.80
2023-01-11T15:56:53.153Z,6.80
2023-01-11T15:59:29.661Z,6.70
2023-01-11T16:02:14.758Z,6.60
2023-01-11T16:04:53.484Z,6.50
2023-01-11T16:07:40.570Z,6.40
2023-01-11T16:10:34.122Z,6.30
2023-01-11T16:13:26.388Z,6.30
2023-01-11T16:16:32.382Z,6.30
2023-01-11T16:19:07.071Z,6.30
2023-01-11T16:21:40.958Z,6.30
2023-01-11T16:24:10.183Z,6.20
2023-01-11T16:26:41.033Z,6.10
2023-01-11T16:29:26.787Z,6.00
2023-01-11T16:31:57.063Z,5.90
2023-01-11T16:34:24.992Z,5.90
2023-01-11T16:36:52.115Z,5.70
2023-01-11T16:39:23.146Z,5.60
2023-01-11T16:42:05.836Z,5.50
2023-01-11T16:44:49.837Z,5.40
2023-01-11T16:47:19.032Z,5.40
2023-01-11T16:49:52.412Z,5.30
2023-01-11T16:52:28.221Z,5.30
2023-01-11T16:54:56.882Z,5.20
2023-01-11T16:57:30.953Z,5.20
2023-01-11T17:00:05.146Z,5.10
2023-01-11T17:02:37.999Z,5.10
2023-01-11T17:05:20.307Z,5.10
2023-01-11T17:07:47.243Z,5.10
2023-01-11T17:10:29.611Z,5.10
2023-01-11T17:13:34.884Z,5.10
2023-01-11T17:16:10.064Z,5.10
2023-01-11T17:18:41.670Z,5.10
2023-01-11T17:21:19.411Z,5.10
2023-01-11T17:23:48.739Z,5.10
2023-01-11T17:26:25.535Z,5.10
2023-01-11T17:28:57.375Z,5.10
2023-01-11T17:31:32.125Z,5.00
2023-01-11T17:34:13.149Z,5.00
2023-01-11T17:36:40.860Z,5.00
2023-01-11T17:39:15.188Z,5.00
2023-01-11T17:42:01.134Z,5.00
2023-01-11T17:44:46.633Z,5.10
2023-01-11T17:47:13.970Z,5.10
2023-01-11T17:49:41.036Z,5.20
2023-01-11T17:52:19.540Z,5.10
2023-01-11T17:54:46.722Z,5.00
2023-01-11T17:57:14.130Z,5.10
2023-01-11T17:59:41.110Z,5.10
2023-01-11T18:02:12.631Z,5.10
2023-01-11T18:04:39.971Z,5.20
2023-01-11T18:07:17.375Z,5.10
2023-01-11T18:09:49.632Z,5.10
2023-01-11T18:12:32.776Z,5.10
2023-01-11T18:15:06.825Z,5.20
2023-01-11T18:17:35.395Z,5.30
2023-01-11T18:20:23.919Z,5.50
2023-01-11T18:22:53.825Z,5.60
2023-01-11T18:25:26.351Z,5.50
2023-01-11T18:28:21.004Z,5.30
2023-01-11T18:30:54.315Z,5.20
2023-01-11T18:33:24.818Z,5.20
2023-01-11T18:36:00.417Z,5.20
2023-01-11T18:38:30.956Z,5.10
2023-01-11T18:40:59.865Z,5.00
2023-01-11T18:43:30.091Z,5.10
2023-01-11T18:45:57.289Z,5.00
2023-01-11T18:48:24.329Z,5.00
2023-01-11T18:50:54.558Z,5.00
2023-01-11T18:53:23.711Z,5.00
2023-01-11T18:55:50.965Z,4.90
2023-01-11T18:58:17.880Z,4.80
2023-01-11T19:00:44.913Z,4.90
2023-01-11T19:03:12.699Z,4.90
2023-01-11T19:05:40.248Z,4.90
2023-01-11T19:08:08.186Z,4.90
2023-01-11T19:10:35.155Z,4.90
2023-01-11T19:13:02.164Z,4.90
2023-01-11T19:15:29.261Z,4.90
2023-01-11T19:17:56.623Z,5.00
2023-01-11T19:20:23.612Z,5.00
2023-01-11T19:22:50.644Z,5.00
2023-01-11T19:25:17.710Z,5.00
2023-01-11T19:27:44.923Z,5.00
2023-01-11T19:30:12.691Z,5.00
2023-01-11T19:32:39.740Z,5.00
2023-01-11T19:35:08.343Z,5.00
2023-01-11T19:37:37.655Z,5.00
2023-01-11T19:40:05.894Z,5.00
2023-01-11T19:42:32.871Z,5.00
2023-01-11T19:44:59.903Z,5.00
2023-01-11T19:47:27.032Z,5.00
2023-01-11T19:49:56.512Z,5.00
2023-01-11T19:52:23.857Z,4.90
2023-01-11T19:54:51.400Z,4.90
2023-01-11T19:57:20.690Z,4.80
2023-01-11T19:59:49.389Z,4.90
2023-01-11T20:02:20.235Z,4.80
2023-01-11T20:04:47.857Z,4.70
2023-01-11T20:07:15.860Z,4.60
2023-01-11T20:09:42.905Z,4.50
2023-01-11T20:12:11.709Z,4.40
2023-01-11T20:14:40.563Z,4.40
2023-01-11T20:17:08.067Z,4.30
2023-01-11T20:19:35.016Z,4.40
2023-01-11T20:22:02.067Z,4.50
2023-01-11T20:24:30.000Z,4.60
2023-01-11T20:26:59.952Z,4.70
2023-01-11T20:29:27.087Z,4.80
2023-01-11T20:31:54.046Z,4.80
2023-01-11T20:34:21.203Z,4.80
2023-01-11T20:36:49.011Z,4.60
2023-01-11T20:39:17.507Z,4.60
2023-01-11T20:41:47.239Z,4.50
2023-01-11T20:44:20.152Z,4.50
2023-01-11T20:46:48.446Z,4.50
2023-01-11T20:49:16.946Z,4.60
2023-01-11T20:51:45.111Z,4.80
2023-01-11T20:54:12.558Z,4.90
2023-01-11T20:56:39.860Z,4.90
2023-01-11T20:59:09.074Z,4.90
2023-01-11T21:01:37.062Z,4.90
2023-01-11T21:04:07.024Z,4.80
2023-01-11T21:06:37.416Z,4.80
2023-01-11T21:09:06.047Z,4.80
2023-01-11T21:11:33.290Z,4.80
2023-01-11T21:14:02.076Z,4.70
2023-01-11T21:16:30.068Z,4.70
2023-01-11T21:18:59.848Z,4.70
2023-01-11T21:21:27.985Z,4.70
2023-01-11T21:23:56.919Z,4.60
2023-01-11T21:26:25.384Z,4.60
2023-01-11T21:29:00.285Z,4.50
2023-01-11T21:31:29.454Z,4.40
2023-01-11T21:33:57.496Z,4.30
2023-01-11T21:36:26.465Z,4.20
2023-01-11T21:38:55.311Z,4.20
2023-01-11T21:41:43.233Z,4.10
2023-01-11T21:44:12.080Z,4.00
2023-01-11T21:46:40.184Z,4.00
2023-01-11T21:49:07.590Z,3.90
2023-01-11T21:51:35.242Z,4.00
2023-01-11T21:54:10.477Z,4.00
2023-01-11T21:56:37.919Z,3.90
2023-01-11T21:59:05.109Z,4.00
2023-01-11T22:01:32.135Z,4.00
2023-01-11T22:03:59.198Z,4.00
2023-01-11T22:06:26.190Z,4.00
2023-01-11T22:08:53.487Z,3.90
2023-01-11T22:11:20.510Z,3.90
2023-01-11T22:13:47.458Z,3.90
2023-01-11T22:16:16.937Z,3.90
2023-01-11T22:18:45.153Z,3.80
2023-01-11T22:21:18.086Z,3.80
2023-01-11T22:23:46.676Z,3.70
2023-01-11T22:26:18.036Z,3.80
2023-01-11T22:29:05.144Z,3.80
2023-01-11T22:31:33.539Z,3.80
2023-01-11T22:34:01.446Z,3.80
2023-01-11T22:36:29.308Z,3.70
2023-01-11T22:38:56.807Z,3.80
2023-01-11T22:41:25.254Z,3.90
2023-01-11T22:43:52.568Z,3.90
2023-01-11T22:46:22.074Z,3.90
2023-01-11T22:48:49.509Z,3.90
2023-01-11T22:51:19.891Z,3.90
2023-01-11T22:53:48.420Z,4.00
2023-01-11T22:56:20.426Z,4.10
2023-01-11T22:58:48.461Z,4.10
2023-01-11T23:01:18.571Z,4.10
2023-01-11T23:03:45.864Z,4.10
2023-01-11T23:06:16.197Z,4.00
2023-01-11T23:08:43.815Z,4.00
2023-01-11T23:11:35.953Z,3.90
2023-01-11T23:14:09.138Z,3.90
2023-01-11T23:16:37.182Z,3.80
2023-01-11T23:19:06.124Z,3.80
2023-01-11T23:21:33.245Z,3.80
2023-01-11T23:24:03.776Z,3.80
2023-01-11T23:26:30.775Z,3.80
2023-01-11T23:28:57.900Z,3.70
2023-01-11T23:31:26.798Z,3.70
2023-01-11T23:33:56.215Z,3.60
2023-01-11T23:36:27.084Z,3.60
2023-01-11T23:38:54.005Z,3.60
2023-01-11T23:41:41.200Z,3.60
2023-01-11T23:44:12.550Z,3.50
2023-01-11T23:46:59.459Z,3.40
2023-01-11T23:49:27.074Z,3.50
2023-01-11T23:51:55.042Z,3.50
2023-01-11T23:54:22.508Z,3.50
2023-01-11T23:56:49.442Z,3.60
2023-01-11T23:59:16.390Z,3.70
